createdAt,value
2023-10-20T00:01:00.681Z,18.96
2023-10-20T00:03:32.967Z,19.00
2023-10-20T00:06:05.843Z,19.00
2023-10-20T00:08:37.275Z,18.89
2023-10-20T00:11:10.104Z,18.92
2023-10-20T00:13:41.809Z,18.97
2023-10-20T00:16:12.888Z,18.84
2023-10-20T00:18:44.589Z,18.79
2023-10-20T00:21:16.674Z,18.87
2023-10-20T00:23:48.294Z,18.89
2023-10-20T00:26:20.107Z,18.97
2023-10-20T00:28:54.336Z,18.93
2023-10-20T00:31:26.531Z,18.94
2023-10-20T00:33:58.552Z,18.94
2023-10-20T00:36:30.709Z,18.92
2023-10-20T00:39:02.222Z,18.94
2023-10-20T00:41:32.909Z,18.93
2023-10-20T00:44:04.618Z,18.89
2023-10-20T00:46:37.049Z,18.93
2023-10-20T00:49:09.064Z,18.89
2023-10-20T00:51:41.603Z,18.79
2023-10-20T00:54:16.301Z,18.72
2023-10-20T00:56:48.472Z,18.67
2023-10-20T00:59:19.942Z,18.63
2023-10-20T01:01:51.037Z,18.63
2023-10-20T01:04:22.453Z,18.63
2023-10-20T01:06:54.859Z,18.56
2023-10-20T01:09:28.403Z,18.51
2023-10-20T01:11:59.752Z,18.52
2023-10-20T01:14:31.654Z,18.53
2023-10-20T01:17:03.415Z,18.62
2023-10-20T01:19:35.377Z,18.48
2023-10-20T01:22:07.340Z,18.41
2023-10-20T01:24:39.281Z,18.45
2023-10-20T01:27:09.968Z,18.45
2023-10-20T01:29:41.009Z,18.43
2023-10-20T01:32:11.555Z,18.43
2023-10-20T01:34:42.707Z,18.33
2023-10-20T01:37:17.470Z,18.31
2023-10-20T01:39:48.611Z,18.35
2023-10-20T01:42:19.228Z,18.33
2023-10-20T01:44:50.151Z,18.35
2023-10-20T01:47:21.258Z,18.32
2023-10-20T01:49:52.544Z,18.25
2023-10-20T01:52:22.776Z,18.24
2023-10-20T01:54:53.936Z,18.21
2023-10-20T01:57:24.441Z,18.21
2023-10-20T01:59:54.788Z,18.31
2023-10-20T02:02:25.124Z,18.29
2023-10-20T02:04:55.511Z,18.25
2023-10-20T02:07:25.587Z,18.28
2023-10-20T02:09:57.325Z,18.29
2023-10-20T02:12:27.522Z,18.24
2023-10-20T02:14:57.524Z,18.25
2023-10-20T02:17:27.815Z,18.28
2023-10-20T02:19:58.357Z,18.19
2023-10-20T02:22:28.450Z,18.09
2023-10-20T02:24:58.931Z,18.06
2023-10-20T02:27:30.835Z,18.06
2023-10-20T02:30:01.042Z,18.04
2023-10-20T02:32:31.409Z,18.06
2023-10-20T02:35:02.787Z,18.11
2023-10-20T02:37:33.329Z,18.09
2023-10-20T02:40:07.252Z,18.08
2023-10-20T02:42:37.452Z,17.94
2023-10-20T02:45:13.212Z,17.94
2023-10-20T02:47:43.472Z,17.92
2023-10-20T02:50:14.593Z,17.94
2023-10-20T02:52:45.439Z,17.94
2023-10-20T02:55:15.749Z,17.95
2023-10-20T02:57:45.960Z,17.88
2023-10-20T03:00:17.439Z,17.84
2023-10-20T03:02:50.908Z,17.85
2023-10-20T03:05:22.565Z,17.84
2023-10-20T03:07:52.729Z,17.82
2023-10-20T03:10:22.830Z,17.82
2023-10-20T03:12:53.155Z,17.84
2023-10-20T03:15:23.325Z,17.85
2023-10-20T03:17:54.339Z,17.82
2023-10-20T03:20:30.632Z,17.80
2023-10-20T03:23:00.886Z,17.80
2023-10-20T03:25:35.835Z,17.75
2023-10-20T03:28:07.622Z,17.77
2023-10-20T03:30:41.913Z,17.74
2023-10-20T03:33:13.452Z,17.74
2023-10-20T03:35:43.941Z,17.82
2023-10-20T03:38:14.176Z,17.87
2023-10-20T03:40:44.660Z,17.80
2023-10-20T03:43:14.830Z,17.63
2023-10-20T03:45:51.774Z,17.73
2023-10-20T03:48:22.357Z,17.75
2023-10-20T03:50:54.779Z,17.67
2023-10-20T03:53:25.741Z,17.54
2023-10-20T03:56:03.779Z,17.61
2023-10-20T03:58:35.046Z,17.60
2023-10-20T04:01:08.980Z,17.57
2023-10-20T04:03:39.236Z,17.64
2023-10-20T04:06:13.348Z,17.67
2023-10-20T04:08:44.788Z,17.60
2023-10-20T04:11:15.178Z,17.64
2023-10-20T04:13:45.332Z,17.66
2023-10-20T04:16:15.886Z,17.64
2023-10-20T04:18:46.870Z,17.44
2023-10-20T04:21:17.156Z,17.31
2023-10-20T04:23:47.427Z,17.43
2023-10-20T04:26:23.574Z,17.55
2023-10-20T04:29:10.420Z,17.61
2023-10-20T04:31:59.360Z,17.63
2023-10-20T04:34:48.215Z,17.61
2023-10-20T04:37:36.633Z,17.41
2023-10-20T04:40:25.566Z,17.37
2023-10-20T04:43:14.108Z,17.40
2023-10-20T04:46:02.524Z,17.40
2023-10-20T04:48:50.963Z,17.41
2023-10-20T04:51:39.243Z,17.44
2023-10-20T04:54:25.071Z,17.44
2023-10-20T04:57:13.258Z,17.47
2023-10-20T04:59:46.210Z,17.43
2023-10-20T05:02:34.773Z,17.43
2023-10-20T05:05:13.482Z,17.43
2023-10-20T05:07:52.481Z,17.40
2023-10-20T05:10:23.441Z,17.40
2023-10-20T05:12:54.060Z,17.39
2023-10-20T05:15:24.359Z,17.40
2023-10-20T05:17:55.016Z,17.31
2023-10-20T05:20:26.439Z,17.23
2023-10-20T05:22:58.707Z,17.15
2023-10-20T05:25:28.997Z,17.02
2023-10-20T05:27:59.334Z,16.95
2023-10-20T05:30:29.999Z,16.88
2023-10-20T05:33:00.429Z,16.86
2023-10-20T05:35:31.662Z,16.88
2023-10-20T05:38:01.891Z,17.02
2023-10-20T05:40:32.100Z,17.10
2023-10-20T05:43:04.158Z,17.08
2023-10-20T05:45:43.901Z,17.06
2023-10-20T05:48:15.122Z,17.09
2023-10-20T05:50:45.416Z,17.09
2023-10-20T05:53:16.724Z,17.12
2023-10-20T05:55:47.369Z,17.15
2023-10-20T05:58:17.544Z,17.12
2023-10-20T06:01:01.610Z,17.16
2023-10-20T06:03:33.253Z,17.12
2023-10-20T06:06:05.841Z,17.13
2023-10-20T06:08:36.130Z,17.23
2023-10-20T06:11:07.635Z,17.23
2023-10-20T06:13:37.924Z,17.27
2023-10-20T06:16:13.188Z,17.24
2023-10-20T06:18:44.911Z,17.24
2023-10-20T06:21:17.788Z,17.29
2023-10-20T06:23:48.943Z,17.30
2023-10-20T06:26:19.497Z,17.37
2023-10-20T06:28:49.645Z,17.36
2023-10-20T06:31:31.730Z,17.33
2023-10-20T06:34:20.021Z,17.34
2023-10-20T06:36:50.640Z,17.33
2023-10-20T06:39:21.037Z,17.39
2023-10-20T06:41:51.463Z,17.39
2023-10-20T06:44:24.299Z,17.29
2023-10-20T06:46:55.148Z,17.22
2023-10-20T06:49:25.618Z,17.19
2023-10-20T06:51:55.865Z,17.16
2023-10-20T06:54:26.056Z,17.18
2023-10-20T06:56:56.723Z,17.24
2023-10-20T06:59:26.955Z,17.27
2023-10-20T07:02:02.668Z,17.31
2023-10-20T07:04:34.386Z,17.40
2023-10-20T07:07:07.716Z,17.43
2023-10-20T07:09:38.183Z,17.33
2023-10-20T07:12:12.485Z,17.22
2023-10-20T07:14:46.032Z,17.22
2023-10-20T07:17:16.304Z,17.20
2023-10-20T07:19:46.456Z,17.26
2023-10-20T07:22:16.781Z,17.27
2023-10-20T07:24:47.134Z,17.34
2023-10-20T07:27:19.033Z,17.46
2023-10-20T07:29:49.573Z,17.50
2023-10-20T07:32:20.902Z,17.44
2023-10-20T07:37:41.927Z,17.51
2023-10-20T07:40:13.063Z,17.54
2023-10-20T07:42:43.796Z,17.57
2023-10-20T07:45:15.199Z,17.60
2023-10-20T07:47:45.391Z,17.61
2023-10-20T07:50:15.658Z,17.63
2023-10-20T07:52:45.910Z,17.63
2023-10-20T07:55:16.976Z,17.64
2023-10-20T07:57:47.524Z,17.63
2023-10-20T08:00:18.235Z,17.64
2023-10-20T08:02:52.381Z,17.63
2023-10-20T08:05:29.488Z,17.61
2023-10-20T08:08:00.918Z,17.61
2023-10-20T08:10:31.245Z,17.60
2023-10-20T08:13:01.928Z,17.60
2023-10-20T08:15:32.420Z,17.61
2023-10-20T08:18:02.713Z,17.60
2023-10-20T08:20:33.037Z,17.57
2023-10-20T08:23:03.616Z,17.53
2023-10-20T08:25:33.578Z,17.57
2023-10-20T08:28:03.630Z,17.57
2023-10-20T08:30:33.881Z,17.54
2023-10-20T08:33:05.828Z,17.54
2023-10-20T08:35:36.516Z,17.50
2023-10-20T08:38:07.074Z,17.51
2023-10-20T08:40:56.179Z,17.54
2023-10-20T08:43:28.316Z,17.59
2023-10-20T08:45:58.577Z,17.54
2023-10-20T08:48:29.599Z,17.55
2023-10-20T08:51:01.655Z,17.61
2023-10-20T08:53:38.863Z,17.60
2023-10-20T08:56:11.066Z,17.59
2023-10-20T08:58:42.500Z,17.55
2023-10-20T09:01:12.688Z,17.60
2023-10-20T09:03:45.699Z,17.54
2023-10-20T09:06:17.200Z,17.63
2023-10-20T09:08:53.454Z,17.69
2023-10-20T09:11:33.190Z,17.75
2023-10-20T09:14:05.038Z,17.77
2023-10-20T09:16:37.006Z,17.81
2023-10-20T09:19:08.124Z,17.78
2023-10-20T09:21:41.982Z,17.73
2023-10-20T09:24:14.315Z,17.75
2023-10-20T09:26:45.994Z,17.78
2023-10-20T09:29:18.092Z,17.81
2023-10-20T09:31:48.487Z,17.91
2023-10-20T09:34:18.775Z,18.04
2023-10-20T09:36:51.813Z,18.11
2023-10-20T09:39:33.719Z,18.13
2023-10-20T09:42:05.261Z,18.05
2023-10-20T09:44:47.852Z,18.08
2023-10-20T09:47:25.962Z,18.19
2023-10-20T09:49:57.292Z,18.24
2023-10-20T09:52:29.304Z,18.42
2023-10-20T09:55:01.745Z,18.53
2023-10-20T09:57:32.274Z,18.60
2023-10-20T10:00:07.616Z,18.57
2023-10-20T10:02:38.030Z,18.57
2023-10-20T10:05:12.464Z,18.53
2023-10-20T10:07:42.634Z,18.56
2023-10-20T10:10:23.056Z,18.69
2023-10-20T10:13:02.332Z,18.59
2023-10-20T10:15:42.713Z,18.63
2023-10-20T10:18:15.044Z,18.74
2023-10-20T10:20:51.078Z,18.87
2023-10-20T10:23:31.963Z,18.96
2023-10-20T10:26:02.241Z,19.06
2023-10-20T10:28:33.130Z,19.21
2023-10-20T10:31:03.969Z,19.25
2023-10-20T10:33:34.828Z,19.24
2023-10-20T10:36:12.514Z,19.36
2023-10-20T10:38:45.628Z,19.41
2023-10-20T10:41:16.076Z,19.50
2023-10-20T10:43:46.261Z,19.59
2023-10-20T10:46:16.587Z,19.71
2023-10-20T10:48:47.724Z,19.76
2023-10-20T10:51:17.968Z,19.96
2023-10-20T10:53:48.713Z,20.06
2023-10-20T10:56:20.142Z,20.12
2023-10-20T10:58:51.068Z,20.15
2023-10-20T11:01:22.711Z,20.13
2023-10-20T11:03:53.656Z,20.27
2023-10-20T11:06:23.920Z,20.43
2023-10-20T11:08:54.676Z,20.53
2023-10-20T11:11:29.842Z,20.63
2023-10-20T11:14:00.721Z,20.70
2023-10-20T11:16:30.888Z,20.56
2023-10-20T11:19:03.967Z,20.60
2023-10-20T11:21:56.535Z,20.83
2023-10-20T11:24:37.759Z,20.75
2023-10-20T11:27:11.080Z,20.77
2023-10-20T11:29:58.590Z,20.90
2023-10-20T11:32:29.596Z,21.06
2023-10-20T11:34:59.953Z,20.92
2023-10-20T11:37:30.144Z,21.11
2023-10-20T11:40:00.378Z,21.47
2023-10-20T11:42:31.281Z,21.25
2023-10-20T11:45:03.341Z,21.06
2023-10-20T11:47:33.711Z,21.22
2023-10-20T11:50:04.642Z,21.38
2023-10-20T11:52:34.903Z,21.55
2023-10-20T11:55:06.084Z,21.52
2023-10-20T11:57:36.382Z,21.50
2023-10-20T12:00:11.406Z,21.62
2023-10-20T12:02:42.462Z,21.80
2023-10-20T12:05:12.929Z,21.70
2023-10-20T12:07:43.137Z,21.70
2023-10-20T12:10:14.877Z,22.17
2023-10-20T12:12:45.147Z,22.48
2023-10-20T12:15:15.142Z,22.31
2023-10-20T12:17:45.380Z,22.31
2023-10-20T12:20:15.654Z,22.52
2023-10-20T12:22:46.004Z,22.55
2023-10-20T12:25:17.155Z,22.59
2023-10-20T12:27:47.428Z,22.62
2023-10-20T12:30:18.109Z,22.47
2023-10-20T12:32:50.355Z,22.64
2023-10-20T12:35:22.141Z,22.96
2023-10-20T12:37:53.560Z,22.91
2023-10-20T12:40:23.191Z,22.95
2023-10-20T12:42:53.931Z,22.84
2023-10-20T12:45:24.120Z,23.02
2023-10-20T12:47:57.863Z,23.26
2023-10-20T12:50:34.778Z,23.58
2023-10-20T12:53:05.870Z,23.53
2023-10-20T12:55:37.132Z,23.74
2023-10-20T12:58:07.529Z,23.88
2023-10-20T13:00:37.779Z,23.94
2023-10-20T13:03:09.716Z,23.96
2023-10-20T13:05:40.349Z,23.87
2023-10-20T13:08:10.594Z,24.22
2023-10-20T13:10:41.691Z,24.56
2023-10-20T13:13:12.865Z,24.91
2023-10-20T13:15:43.822Z,24.94
2023-10-20T13:18:18.004Z,25.30
2023-10-20T13:20:48.257Z,25.62
2023-10-20T13:23:18.795Z,25.55
2023-10-20T13:25:49.019Z,24.80
2023-10-20T13:28:19.240Z,24.72
2023-10-20T13:31:07.507Z,24.83
2023-10-20T13:33:38.975Z,25.06
2023-10-20T13:36:13.426Z,25.47
2023-10-20T13:38:43.752Z,25.42
2023-10-20T13:41:17.367Z,25.17
2023-10-20T13:43:47.592Z,24.96
2023-10-20T13:46:18.734Z,24.91
2023-10-20T13:48:49.433Z,25.27
2023-10-20T13:51:19.657Z,24.87
2023-10-20T13:53:50.023Z,24.66
2023-10-20T13:56:20.326Z,24.66
2023-10-20T13:58:50.795Z,24.73
2023-10-20T14:01:20.997Z,24.72
2023-10-20T14:03:52.496Z,24.59
2023-10-20T14:06:22.753Z,25.14
2023-10-20T14:08:52.861Z,25.31
2023-10-20T14:11:23.342Z,24.63
2023-10-20T14:13:53.684Z,25.11
2023-10-20T14:16:23.957Z,26.20
2023-10-20T14:18:54.155Z,26.22
2023-10-20T14:21:25.588Z,25.98
2023-10-20T14:23:55.957Z,26.19
2023-10-20T14:26:26.078Z,26.53
2023-10-20T14:28:56.368Z,25.96
2023-10-20T14:31:26.644Z,25.57
2023-10-20T14:33:57.131Z,25.11
2023-10-20T14:36:27.329Z,25.02
2023-10-20T14:38:57.560Z,25.07
2023-10-20T14:41:27.793Z,25.11
2023-10-20T14:43:58.042Z,25.24
2023-10-20T14:46:28.717Z,25.44
2023-10-20T14:48:59.054Z,25.60
2023-10-20T14:51:29.269Z,25.71
2023-10-20T14:54:00.465Z,25.64
2023-10-20T14:56:30.147Z,25.86
2023-10-20T14:59:01.246Z,25.71
2023-10-20T15:01:32.240Z,25.74
2023-10-20T15:04:13.998Z,25.78
2023-10-20T15:06:52.244Z,25.50
2023-10-20T15:09:23.249Z,25.45
2023-10-20T15:11:54.445Z,25.75
2023-10-20T15:14:24.329Z,25.99
2023-10-20T15:16:56.411Z,25.64
2023-10-20T15:19:27.995Z,25.42
2023-10-20T15:21:58.223Z,25.47
2023-10-20T15:24:28.447Z,25.33
2023-10-20T15:26:59.196Z,25.44
2023-10-20T15:29:29.504Z,25.35
2023-10-20T15:31:59.771Z,25.23
2023-10-20T15:34:30.746Z,25.38
2023-10-20T15:37:01.861Z,25.38
2023-10-20T15:39:47.372Z,25.55
2023-10-20T15:42:23.593Z,25.74
2023-10-20T15:44:53.912Z,25.82
2023-10-20T15:47:24.313Z,25.85
2023-10-20T15:49:54.792Z,26.05
2023-10-20T15:52:25.038Z,25.92
2023-10-20T15:54:56.211Z,26.01
2023-10-20T15:57:26.191Z,26.29
2023-10-20T15:59:58.678Z,26.39
2023-10-20T16:02:29.258Z,26.15
2023-10-20T16:05:00.363Z,26.42
2023-10-20T16:07:33.182Z,26.47
2023-10-20T16:10:03.405Z,26.20
2023-10-20T16:12:33.633Z,26.03
2023-10-20T16:15:03.970Z,25.96
2023-10-20T16:17:34.640Z,25.88
2023-10-20T16:20:05.587Z,26.02
2023-10-20T16:22:35.776Z,26.28
2023-10-20T16:25:06.511Z,26.50
2023-10-20T16:27:36.942Z,26.50
2023-10-20T16:30:07.829Z,26.36
2023-10-20T16:32:40.331Z,26.69
2023-10-20T16:35:11.696Z,26.91
2023-10-20T16:37:41.876Z,26.95
2023-10-20T16:40:13.724Z,26.86
2023-10-20T16:42:43.912Z,26.53
2023-10-20T16:45:14.167Z,26.59
2023-10-20T16:47:44.464Z,26.69
2023-10-20T16:50:14.706Z,26.73
2023-10-20T16:52:44.854Z,26.76
2023-10-20T16:55:14.913Z,26.86
2023-10-20T16:57:45.097Z,27.21
2023-10-20T17:00:15.701Z,27.27
2023-10-20T17:02:47.559Z,27.08
2023-10-20T17:05:18.297Z,27.02
2023-10-20T17:07:49.149Z,26.88
2023-10-20T17:10:20.690Z,26.53
2023-10-20T17:12:52.529Z,26.13
2023-10-20T17:15:22.802Z,26.16
2023-10-20T17:17:53.010Z,26.22
2023-10-20T17:20:23.316Z,26.67
2023-10-20T17:22:53.453Z,27.10
2023-10-20T17:25:23.619Z,26.83
2023-10-20T17:27:53.797Z,26.71
2023-10-20T17:30:24.073Z,26.54
2023-10-20T17:32:54.379Z,26.26
2023-10-20T17:35:24.446Z,26.26
2023-10-20T17:37:56.158Z,26.50
2023-10-20T17:40:26.794Z,27.51
2023-10-20T17:42:56.762Z,28.17
2023-10-20T17:45:28.732Z,28.72
2023-10-20T17:47:58.998Z,28.37
2023-10-20T17:50:29.277Z,28.33
2023-10-20T17:52:59.433Z,27.94
2023-10-20T17:55:29.668Z,27.62
2023-10-20T17:58:02.692Z,28.28
2023-10-20T18:00:33.024Z,28.41
2023-10-20T18:03:03.605Z,28.69
2023-10-20T18:05:34.746Z,28.90
2023-10-20T18:08:06.626Z,28.47
2023-10-20T18:10:36.952Z,27.90
2023-10-20T18:13:07.096Z,27.65
2023-10-20T18:15:41.588Z,28.18
2023-10-20T18:18:12.370Z,29.32
2023-10-20T18:20:42.730Z,28.74
2023-10-20T18:23:12.994Z,28.24
2023-10-20T18:25:43.153Z,28.14
2023-10-20T18:28:13.327Z,28.25
2023-10-20T18:30:43.465Z,28.69
2023-10-20T18:33:13.829Z,29.29
2023-10-20T18:35:44.139Z,29.27
2023-10-20T18:38:14.718Z,29.88
2023-10-20T18:40:46.078Z,30.35
2023-10-20T18:43:16.287Z,30.48
2023-10-20T18:45:59.256Z,30.31
2023-10-20T18:48:31.113Z,30.45
2023-10-20T18:51:12.048Z,30.69
2023-10-20T18:53:43.268Z,31.06
2023-10-20T18:56:14.200Z,31.33
2023-10-20T18:58:47.180Z,28.98
2023-10-20T19:01:18.495Z,28.25
2023-10-20T19:03:49.487Z,28.51
2023-10-20T19:06:20.249Z,27.30
2023-10-20T19:08:50.440Z,27.11
2023-10-20T19:11:23.172Z,26.87
2023-10-20T19:13:53.901Z,26.71
2023-10-20T19:16:24.166Z,26.42
2023-10-20T19:18:54.448Z,26.22
2023-10-20T19:21:24.782Z,26.33
2023-10-20T19:23:54.994Z,25.86
2023-10-20T19:26:25.190Z,26.08
2023-10-20T19:28:55.672Z,26.18
2023-10-20T19:31:25.944Z,25.92
2023-10-20T19:33:56.193Z,25.69
2023-10-20T19:36:26.396Z,25.69
2023-10-20T19:38:56.801Z,25.79
2023-10-20T19:41:27.138Z,25.58
2023-10-20T19:43:57.396Z,25.50
2023-10-20T19:46:28.208Z,25.40
2023-10-20T19:48:58.429Z,25.77
2023-10-20T19:51:28.526Z,26.23
2023-10-20T19:53:58.765Z,25.92
2023-10-20T19:56:29.012Z,25.65
2023-10-20T19:58:59.306Z,25.28
2023-10-20T20:01:29.905Z,24.86
2023-10-20T20:04:00.269Z,24.68
2023-10-20T20:06:31.168Z,24.65
2023-10-20T20:09:01.338Z,24.68
2023-10-20T20:11:31.661Z,24.62
2023-10-20T20:14:01.904Z,24.58
2023-10-20T20:16:32.153Z,24.60
2023-10-20T20:19:02.203Z,24.69
2023-10-20T20:21:32.431Z,24.68
2023-10-20T20:24:02.615Z,24.55
2023-10-20T20:26:32.773Z,24.40
2023-10-20T20:29:03.114Z,24.28
2023-10-20T20:31:33.711Z,24.17
2023-10-20T20:34:03.896Z,24.21
2023-10-20T20:36:34.186Z,24.02
2023-10-20T20:39:06.635Z,23.87
2023-10-20T20:41:36.897Z,23.71
2023-10-20T20:44:07.069Z,23.57
2023-10-20T20:46:37.592Z,23.49
2023-10-20T20:49:07.859Z,23.42
2023-10-20T20:51:38.505Z,23.30
2023-10-20T20:54:08.774Z,23.15
2023-10-20T20:56:39.198Z,22.96
2023-10-20T20:59:09.496Z,22.82
2023-10-20T21:01:41.104Z,22.79
2023-10-20T21:04:11.361Z,22.76
2023-10-20T21:06:42.019Z,23.08
2023-10-20T21:09:12.645Z,23.49
2023-10-20T21:11:42.978Z,23.33
2023-10-20T21:14:13.274Z,22.76
2023-10-20T21:16:43.436Z,22.67
2023-10-20T21:19:13.619Z,22.52
2023-10-20T21:21:43.902Z,22.45
2023-10-20T21:24:14.161Z,22.34
2023-10-20T21:26:44.377Z,22.24
2023-10-20T21:29:14.554Z,22.14
2023-10-20T21:31:44.744Z,22.13
2023-10-20T21:34:14.647Z,22.11
2023-10-20T21:36:44.988Z,22.03
2023-10-20T21:39:15.345Z,21.97
2023-10-20T21:41:45.638Z,21.93
2023-10-20T21:44:15.769Z,21.89
2023-10-20T21:46:45.754Z,21.89
2023-10-20T21:49:15.920Z,21.83
2023-10-20T21:51:51.103Z,21.73
2023-10-20T21:54:21.252Z,21.75
2023-10-20T21:56:51.525Z,21.72
2023-10-20T21:59:21.711Z,21.67
2023-10-20T22:02:08.982Z,21.65
2023-10-20T22:04:40.167Z,21.57
2023-10-20T22:07:10.899Z,21.55
2023-10-20T22:09:53.145Z,21.52
2023-10-20T22:12:24.656Z,21.55
2023-10-20T22:14:54.952Z,21.50
2023-10-20T22:17:25.243Z,21.46
2023-10-20T22:19:55.478Z,21.38
2023-10-20T22:22:26.068Z,21.29
2023-10-20T22:24:56.358Z,21.25
2023-10-20T22:27:29.435Z,21.14
2023-10-20T22:30:00.883Z,21.12
2023-10-20T22:32:31.281Z,21.09
2023-10-20T22:35:02.858Z,21.01
2023-10-20T22:37:33.696Z,20.95
2023-10-20T22:40:06.856Z,20.87
2023-10-20T22:42:38.608Z,20.83
2023-10-20T22:45:09.268Z,20.75
2023-10-20T22:47:39.586Z,20.65
2023-10-20T22:50:10.289Z,20.61
2023-10-20T22:52:40.538Z,20.58
2023-10-20T22:55:11.638Z,20.57
2023-10-20T22:57:41.912Z,20.56
2023-10-20T23:00:14.480Z,20.48
2023-10-20T23:02:45.942Z,20.40
2023-10-20T23:05:16.229Z,20.37
2023-10-20T23:07:46.860Z,20.33
2023-10-20T23:10:17.018Z,20.26
2023-10-20T23:12:47.320Z,20.16
2023-10-20T23:15:17.641Z,20.15
2023-10-20T23:17:47.941Z,20.16
2023-10-20T23:20:18.210Z,20.08
2023-10-20T23:22:48.675Z,20.03
2023-10-20T23:25:18.928Z,19.99
2023-10-20T23:27:49.832Z,19.99
2023-10-20T23:30:20.136Z,19.99
2023-10-20T23:32:50.558Z,19.99
2023-10-20T23:35:21.241Z,20.02
2023-10-20T23:37:51.484Z,19.96
2023-10-20T23:40:21.733Z,19.95
2023-10-20T23:42:52.016Z,19.90
2023-10-20T23:45:22.311Z,19.90
2023-10-20T23:47:52.550Z,19.87
2023-10-20T23:50:23.273Z,19.90
2023-10-20T23:52:53.474Z,19.86
2023-10-20T23:55:23.406Z,19.82
2023-10-20T23:57:53.617Z,19.83
